Terminal Aerodrome Forecast
Issued by NWS Charleston, WV

Current Version | Previous Version | Text Only | Print | Product List | Glossary Off
Versions: 1 2 3 4 5 6 7 8 9 10 11 12 13 14 15 16 17 18 19 20 21 22 23 24 25 26

696
FTUS41 KRLX 171722
TAFEKN
TAF
KEKN 171722Z 1718/1818 07003KT P6SM SCT040 SCT080
     FM180000 00000KT P6SM SKC
     FM180500 00000KT 2SM BR SCT001
     FM180600 00000KT 1/4SM FG VV001
     FM181300 00000KT 1SM BR BKN002
     FM181400 00000KT P6SM SKC
     FM181600 07003KT P6SM SCT040=

USA.gov is the U.S. government's official web portal to all federal, state and local government web resources and services.